createdAt,value
2017-06-27T00:00:21.276Z,1007.53
2017-06-27T00:00:47.381Z,1007.51
2017-06-27T00:01:13.529Z,1007.53
2017-06-27T00:01:39.620Z,1007.53
2017-06-27T00:02:05.726Z,1007.52
2017-06-27T00:02:31.831Z,1007.52
2017-06-27T00:02:57.919Z,1007.5
2017-06-27T00:03:24.017Z,1007.52
2017-06-27T00:03:50.126Z,1007.48
2017-06-27T00:04:16.216Z,1007.48
2017-06-27T00:04:42.336Z,1007.46
2017-06-27T00:05:08.561Z,1007.49
2017-06-27T00:05:34.684Z,1007.48
2017-06-27T00:06:00.790Z,1007.51
2017-06-27T00:06:26.880Z,1007.51
2017-06-27T00:06:52.981Z,1007.51
2017-06-27T00:07:19.086Z,1007.5
2017-06-27T00:07:45.176Z,1007.49
2017-06-27T00:08:11.296Z,1007.53
2017-06-27T00:08:37.403Z,1007.51
2017-06-27T00:09:03.497Z,1007.48
2017-06-27T00:09:29.613Z,1007.51
2017-06-27T00:09:55.722Z,1007.52
2017-06-27T00:10:21.819Z,1007.54
2017-06-27T00:10:47.923Z,1007.55
2017-06-27T00:11:14.013Z,1007.51
2017-06-27T00:11:40.134Z,1007.48
2017-06-27T00:12:06.243Z,1007.51
2017-06-27T00:12:32.336Z,1007.51
2017-06-27T00:12:58.427Z,1007.54
2017-06-27T00:13:24.565Z,1007.5
2017-06-27T00:13:50.688Z,1007.48
2017-06-27T00:14:16.779Z,1007.52
2017-06-27T00:14:42.912Z,1007.51
2017-06-27T00:15:09.012Z,1007.52
2017-06-27T00:15:35.128Z,1007.46
2017-06-27T00:16:01.258Z,1007.48
2017-06-27T00:16:27.373Z,1007.48
2017-06-27T00:16:53.480Z,1007.48
2017-06-27T00:17:19.577Z,1007.43
2017-06-27T00:17:45.667Z,1007.47
2017-06-27T00:18:11.826Z,1007.5
2017-06-27T00:18:37.954Z,1007.49
2017-06-27T00:19:04.068Z,1007.45
2017-06-27T00:19:30.196Z,1007.5
2017-06-27T00:19:56.397Z,1007.48
2017-06-27T00:20:22.532Z,1007.51
2017-06-27T00:20:48.632Z,1007.45
2017-06-27T00:21:14.736Z,1007.47
2017-06-27T00:21:40.859Z,1007.51
2017-06-27T00:22:07.019Z,1007.49
2017-06-27T00:22:33.133Z,1007.49
2017-06-27T00:22:59.234Z,1007.5
2017-06-27T00:23:25.367Z,1007.53
2017-06-27T00:23:51.457Z,1007.53
2017-06-27T00:24:17.556Z,1007.51
2017-06-27T00:24:43.661Z,1007.52
2017-06-27T00:25:09.751Z,1007.54
2017-06-27T00:25:35.847Z,1007.58
2017-06-27T00:26:01.955Z,1007.55
2017-06-27T00:26:28.075Z,1007.57
2017-06-27T00:26:54.192Z,1007.53
2017-06-27T00:27:20.293Z,1007.56
2017-06-27T00:27:46.394Z,1007.54
2017-06-27T00:28:12.528Z,1007.56
2017-06-27T00:28:38.631Z,1007.56
2017-06-27T00:29:05.002Z,1007.53
2017-06-27T00:29:31.099Z,1007.54
2017-06-27T00:29:57.194Z,1007.51
2017-06-27T00:30:23.284Z,1007.51
2017-06-27T00:30:49.690Z,1007.5
2017-06-27T00:31:15.786Z,1007.5
2017-06-27T00:31:41.876Z,1007.48
2017-06-27T00:32:07.980Z,1007.51
2017-06-27T00:32:34.077Z,1007.46
2017-06-27T00:33:00.168Z,1007.42
2017-06-27T00:33:26.300Z,1007.46
2017-06-27T00:33:52.406Z,1007.45
2017-06-27T00:34:18.493Z,1007.45
2017-06-27T00:34:44.594Z,1007.47
2017-06-27T00:35:10.728Z,1007.44
2017-06-27T00:35:36.838Z,1007.48
2017-06-27T00:36:02.934Z,1007.48
2017-06-27T00:36:29.069Z,1007.45
2017-06-27T00:36:55.161Z,1007.47
2017-06-27T00:37:21.252Z,1007.47
2017-06-27T00:37:47.360Z,1007.49
2017-06-27T00:38:13.456Z,1007.47
2017-06-27T00:38:39.558Z,1007.42
2017-06-27T00:39:05.649Z,1007.46
2017-06-27T00:39:31.745Z,1007.46
2017-06-27T00:39:57.852Z,1007.47
2017-06-27T00:40:23.945Z,1007.44
2017-06-27T00:40:50.037Z,1007.48
2017-06-27T00:41:16.147Z,1007.47
2017-06-27T00:41:42.271Z,1007.48
2017-06-27T00:42:08.385Z,1007.48
2017-06-27T00:42:34.514Z,1007.46
2017-06-27T00:43:00.641Z,1007.45
2017-06-27T00:43:26.755Z,1007.45
2017-06-27T00:43:52.856Z,1007.46
2017-06-27T00:44:18.947Z,1007.44
2017-06-27T00:44:45.082Z,1007.43
2017-06-27T00:45:11.179Z,1007.4
2017-06-27T00:45:37.270Z,1007.39
2017-06-27T00:46:03.376Z,1007.4
2017-06-27T00:46:29.477Z,1007.39
2017-06-27T00:46:55.567Z,1007.36
2017-06-27T00:47:21.723Z,1007.34
2017-06-27T00:47:47.829Z,1007.36
2017-06-27T00:48:13.942Z,1007.37
2017-06-27T00:48:40.042Z,1007.38
2017-06-27T00:49:06.146Z,1007.34
2017-06-27T00:49:32.259Z,1007.32
2017-06-27T00:49:58.390Z,1007.35
2017-06-27T00:50:24.479Z,1007.35
2017-06-27T00:50:50.581Z,1007.38
2017-06-27T00:51:16.685Z,1007.36
2017-06-27T00:51:42.771Z,1007.38
2017-06-27T00:52:08.925Z,1007.31
2017-06-27T00:52:35.058Z,1007.34
2017-06-27T00:53:01.148Z,1007.34
2017-06-27T00:53:27.246Z,1007.33
2017-06-27T00:53:53.353Z,1007.35
2017-06-27T00:54:19.468Z,1007.32
2017-06-27T00:54:45.558Z,1007.31
2017-06-27T00:55:11.662Z,1007.35
2017-06-27T00:55:37.763Z,1007.34
2017-06-27T00:56:03.866Z,1007.33
2017-06-27T00:56:29.953Z,1007.37
2017-06-27T00:56:56.049Z,1007.37
2017-06-27T00:57:22.157Z,1007.34
2017-06-27T00:57:48.251Z,1007.33
2017-06-27T00:58:14.368Z,1007.34
2017-06-27T00:58:40.529Z,1007.37
2017-06-27T00:59:06.650Z,1007.36
2017-06-27T00:59:32.764Z,1007.36
2017-06-27T00:59:58.870Z,1007.32
2017-06-27T01:00:24.971Z,1007.35
2017-06-27T01:00:51.070Z,1007.37
2017-06-27T01:01:17.188Z,1007.33
2017-06-27T01:01:43.280Z,1007.32
2017-06-27T01:02:09.400Z,1007.33
2017-06-27T01:02:35.505Z,1007.31
2017-06-27T01:03:01.610Z,1007.32
2017-06-27T01:03:27.769Z,1007.32
2017-06-27T01:03:53.867Z,1007.33
2017-06-27T01:04:19.956Z,1007.32
2017-06-27T01:04:46.082Z,1007.31
2017-06-27T01:05:12.185Z,1007.34
2017-06-27T01:05:38.373Z,1007.36
2017-06-27T01:06:04.474Z,1007.36
2017-06-27T01:06:30.594Z,1007.35
2017-06-27T01:06:56.701Z,1007.34
2017-06-27T01:07:22.828Z,1007.32
2017-06-27T01:07:48.918Z,1007.33
2017-06-27T01:08:15.043Z,1007.37
2017-06-27T01:08:41.151Z,1007.37
2017-06-27T01:09:07.262Z,1007.36
2017-06-27T01:09:33.361Z,1007.39
2017-06-27T01:09:59.495Z,1007.35
2017-06-27T01:10:25.608Z,1007.37
2017-06-27T01:10:51.706Z,1007.36
2017-06-27T01:11:17.835Z,1007.36
2017-06-27T01:11:43.933Z,1007.33
2017-06-27T01:12:10.035Z,1007.39
2017-06-27T01:12:36.171Z,1007.36
2017-06-27T01:13:02.270Z,1007.36
2017-06-27T01:13:28.378Z,1007.39
2017-06-27T01:13:54.468Z,1007.4
2017-06-27T01:14:20.565Z,1007.35
2017-06-27T01:14:46.670Z,1007.39
2017-06-27T01:15:12.839Z,1007.39
2017-06-27T01:15:38.928Z,1007.38
2017-06-27T01:16:05.036Z,1007.36
2017-06-27T01:16:31.130Z,1007.3
2017-06-27T01:16:57.221Z,1007.32
2017-06-27T01:17:23.354Z,1007.31
2017-06-27T01:17:49.481Z,1007.3
2017-06-27T01:18:15.571Z,1007.3
2017-06-27T01:18:41.672Z,1007.3
2017-06-27T01:19:07.779Z,1007.29
2017-06-27T01:19:33.886Z,1007.29
2017-06-27T01:19:59.986Z,1007.26
2017-06-27T01:20:26.092Z,1007.28
2017-06-27T01:20:52.233Z,1007.3
2017-06-27T01:21:18.329Z,1007.26
2017-06-27T01:21:44.435Z,1007.26
2017-06-27T01:22:10.605Z,1007.29
2017-06-27T01:22:36.718Z,1007.28
2017-06-27T01:23:02.845Z,1007.28
2017-06-27T01:23:28.994Z,1007.26
2017-06-27T01:23:55.127Z,1007.25
2017-06-27T01:24:21.218Z,1007.25
2017-06-27T01:24:47.337Z,1007.26
2017-06-27T01:25:13.441Z,1007.24
2017-06-27T01:25:39.534Z,1007.24
2017-06-27T01:26:05.623Z,1007.24
2017-06-27T01:26:31.732Z,1007.21
2017-06-27T01:26:57.827Z,1007.21
2017-06-27T01:27:23.942Z,1007.18
2017-06-27T01:27:50.077Z,1007.18
2017-06-27T01:28:16.204Z,1007.19
2017-06-27T01:28:42.304Z,1007.18
2017-06-27T01:29:08.424Z,1007.17
2017-06-27T01:29:34.563Z,1007.19
2017-06-27T01:30:00.673Z,1007.19
2017-06-27T01:30:26.768Z,1007.16
2017-06-27T01:30:52.859Z,1007.18
2017-06-27T01:31:18.965Z,1007.17
2017-06-27T01:31:45.063Z,1007.16
2017-06-27T01:32:11.151Z,1007.18
2017-06-27T01:32:37.254Z,1007.16
2017-06-27T01:33:03.358Z,1007.13
2017-06-27T01:33:29.445Z,1007.14
2017-06-27T01:33:55.540Z,1007.14
2017-06-27T01:34:21.634Z,1007.13
2017-06-27T01:34:47.741Z,1007.1
2017-06-27T01:35:13.839Z,1007.15
2017-06-27T01:35:39.928Z,1007.12
2017-06-27T01:36:06.159Z,1007.12
2017-06-27T01:36:32.265Z,1007.12
2017-06-27T01:36:58.374Z,1007.09
2017-06-27T01:37:24.498Z,1007.1
2017-06-27T01:37:50.604Z,1007.14
2017-06-27T01:38:16.693Z,1007.1
2017-06-27T01:38:42.787Z,1007.11
2017-06-27T01:39:08.890Z,1007.13
2017-06-27T01:39:34.983Z,1007.1
2017-06-27T01:40:01.087Z,1007.12
2017-06-27T01:40:27.174Z,1007.11
2017-06-27T01:40:53.272Z,1007.13
2017-06-27T01:41:19.433Z,1007.13
2017-06-27T01:41:45.523Z,1007.13
2017-06-27T01:42:11.618Z,1007.11
2017-06-27T01:42:37.721Z,1007.12
2017-06-27T01:43:03.815Z,1007.12
2017-06-27T01:43:29.905Z,1007.15
2017-06-27T01:43:56.011Z,1007.17
2017-06-27T01:44:22.163Z,1007.13
2017-06-27T01:44:48.280Z,1007.14
2017-06-27T01:45:14.413Z,1007.15
2017-06-27T01:45:40.503Z,1007.16
2017-06-27T01:46:06.608Z,1007.16
2017-06-27T01:46:32.699Z,1007.2
2017-06-27T01:46:58.814Z,1007.17
2017-06-27T01:47:24.922Z,1007.18
2017-06-27T01:47:51.035Z,1007.17
2017-06-27T01:48:17.132Z,1007.19
2017-06-27T01:48:43.238Z,1007.17
2017-06-27T01:49:09.338Z,1007.18
2017-06-27T01:49:35.426Z,1007.13
2017-06-27T01:50:01.557Z,1007.19
2017-06-27T01:50:27.662Z,1007.22
2017-06-27T01:50:53.755Z,1007.19
2017-06-27T01:51:19.851Z,1007.19
2017-06-27T01:51:45.990Z,1007.18
2017-06-27T01:52:12.122Z,1007.19
2017-06-27T01:52:38.248Z,1007.18
2017-06-27T01:53:04.339Z,1007.19
2017-06-27T01:53:30.468Z,1007.14
2017-06-27T01:53:56.575Z,1007.17
2017-06-27T01:54:22.685Z,1007.16
2017-06-27T01:54:48.812Z,1007.15
2017-06-27T01:55:14.918Z,1007.12
2017-06-27T01:55:41.006Z,1007.15
2017-06-27T01:56:07.127Z,1007.13
2017-06-27T01:56:33.223Z,1007.16
2017-06-27T01:56:59.373Z,1007.16
2017-06-27T01:57:25.478Z,1007.15
2017-06-27T01:57:51.589Z,1007.13
2017-06-27T01:58:17.715Z,1007.13
2017-06-27T01:58:43.820Z,1007.12
2017-06-27T01:59:09.910Z,1007.12
2017-06-27T01:59:36.031Z,1007.13
2017-06-27T02:00:02.137Z,1007.13
2017-06-27T02:00:28.232Z,1007.13
2017-06-27T02:00:54.321Z,1007.11
2017-06-27T02:01:20.430Z,1007.16
2017-06-27T02:01:46.551Z,1007.14
2017-06-27T02:02:12.665Z,1007.11
2017-06-27T02:02:38.771Z,1007.08
2017-06-27T02:03:04.923Z,1007.13
2017-06-27T02:03:31.013Z,1007.11
2017-06-27T02:03:57.117Z,1007.08
2017-06-27T02:04:23.251Z,1007.06
2017-06-27T02:04:49.360Z,1007.07
2017-06-27T02:05:15.461Z,1007.06
2017-06-27T02:05:41.566Z,1007.04
2017-06-27T02:06:07.683Z,1007.06
2017-06-27T02:06:33.799Z,1007.02
2017-06-27T02:06:59.906Z,1007.04
2017-06-27T02:07:25.999Z,1007.01
2017-06-27T02:07:52.105Z,1007.01
2017-06-27T02:08:18.189Z,1007.01
2017-06-27T02:08:44.288Z,1007
2017-06-27T02:09:10.394Z,1006.99
2017-06-27T02:09:36.484Z,1007.02
2017-06-27T02:10:02.581Z,1006.97
2017-06-27T02:10:28.683Z,1006.95
2017-06-27T02:10:54.802Z,1006.92
2017-06-27T02:11:20.918Z,1006.92
2017-06-27T02:11:47.025Z,1006.94
2017-06-27T02:12:13.142Z,1006.94
2017-06-27T02:12:39.255Z,1006.93
2017-06-27T02:13:05.388Z,1006.93
2017-06-27T02:13:31.530Z,1006.97
2017-06-27T02:13:57.632Z,1006.95
2017-06-27T02:14:23.727Z,1006.94
2017-06-27T02:14:49.814Z,1006.97
2017-06-27T02:15:15.920Z,1006.92
2017-06-27T02:15:42.041Z,1006.96
2017-06-27T02:16:08.133Z,1006.92
2017-06-27T02:16:34.241Z,1006.91
2017-06-27T02:17:00.368Z,1006.89
2017-06-27T02:17:26.481Z,1006.9
2017-06-27T02:17:52.582Z,1006.91
2017-06-27T02:18:18.685Z,1006.91
2017-06-27T02:18:44.779Z,1006.89
2017-06-27T02:19:10.904Z,1006.92
2017-06-27T02:19:37.019Z,1006.88
2017-06-27T02:20:03.123Z,1006.91
2017-06-27T02:20:29.250Z,1006.92
2017-06-27T02:20:55.363Z,1006.9
2017-06-27T02:21:21.467Z,1006.9
2017-06-27T02:21:47.571Z,1006.88
2017-06-27T02:22:13.679Z,1006.9
2017-06-27T02:22:39.778Z,1006.89
2017-06-27T02:23:05.885Z,1006.88
2017-06-27T02:23:31.997Z,1006.88
2017-06-27T02:23:58.095Z,1006.91
2017-06-27T02:24:24.219Z,1006.88
2017-06-27T02:24:50.323Z,1006.9
2017-06-27T02:25:16.430Z,1006.86
2017-06-27T02:25:42.516Z,1006.86
2017-06-27T02:26:08.637Z,1006.89
2017-06-27T02:26:34.743Z,1006.91
2017-06-27T02:27:00.834Z,1006.87
2017-06-27T02:27:26.956Z,1006.85
2017-06-27T02:27:53.062Z,1006.85
2017-06-27T02:28:19.178Z,1006.86
2017-06-27T02:28:45.268Z,1006.88
2017-06-27T02:29:11.377Z,1006.92
2017-06-27T02:29:37.474Z,1006.85
2017-06-27T02:30:03.598Z,1006.85
2017-06-27T02:30:29.739Z,1006.83
2017-06-27T02:30:55.834Z,1006.8
2017-06-27T02:31:21.965Z,1006.85
2017-06-27T02:31:48.058Z,1006.81
2017-06-27T02:32:14.169Z,1006.78
2017-06-27T02:32:40.306Z,1006.78
2017-06-27T02:33:06.428Z,1006.76
2017-06-27T02:33:32.566Z,1006.78
2017-06-27T02:33:58.697Z,1006.79
2017-06-27T02:34:24.797Z,1006.79
2017-06-27T02:34:50.888Z,1006.82
2017-06-27T02:35:16.986Z,1006.8
2017-06-27T02:35:43.077Z,1006.78
2017-06-27T02:36:09.185Z,1006.75
2017-06-27T02:36:35.282Z,1006.75
2017-06-27T02:37:01.371Z,1006.72
2017-06-27T02:37:27.477Z,1006.75
2017-06-27T02:37:53.604Z,1006.7
2017-06-27T02:38:19.695Z,1006.74
2017-06-27T02:38:45.797Z,1006.72
2017-06-27T02:39:11.904Z,1006.71
2017-06-27T02:39:37.989Z,1006.69
2017-06-27T02:40:04.088Z,1006.67
2017-06-27T02:40:30.191Z,1006.68
2017-06-27T02:40:56.306Z,1006.68
2017-06-27T02:41:22.435Z,1006.66
2017-06-27T02:41:48.599Z,1006.7
2017-06-27T02:42:14.722Z,1006.72
2017-06-27T02:42:40.882Z,1006.69
2017-06-27T02:43:06.967Z,1006.68
2017-06-27T02:43:33.066Z,1006.68
2017-06-27T02:43:59.173Z,1006.65
2017-06-27T02:44:25.287Z,1006.66
2017-06-27T02:44:51.384Z,1006.66
2017-06-27T02:45:17.489Z,1006.71
2017-06-27T02:45:43.583Z,1006.68
2017-06-27T02:46:09.673Z,1006.69
2017-06-27T02:46:35.779Z,1006.68
2017-06-27T02:47:01.874Z,1006.68
2017-06-27T02:47:28.012Z,1006.68
2017-06-27T02:47:54.145Z,1006.68
2017-06-27T02:48:20.246Z,1006.66
2017-06-27T02:48:46.359Z,1006.67
2017-06-27T02:49:12.457Z,1006.66
2017-06-27T02:49:38.563Z,1006.68
2017-06-27T02:50:04.650Z,1006.64
2017-06-27T02:50:30.748Z,1006.65
2017-06-27T02:50:56.851Z,1006.68
2017-06-27T02:51:22.945Z,1006.68
2017-06-27T02:51:49.038Z,1006.7
2017-06-27T02:52:15.162Z,1006.66
2017-06-27T02:52:41.262Z,1006.7
2017-06-27T02:53:07.369Z,1006.69
2017-06-27T02:53:33.454Z,1006.72
2017-06-27T02:53:59.580Z,1006.73
2017-06-27T02:54:25.684Z,1006.75
2017-06-27T02:54:51.798Z,1006.74
2017-06-27T02:55:17.965Z,1006.77
2017-06-27T02:55:44.119Z,1006.78
2017-06-27T02:56:10.242Z,1006.78
2017-06-27T02:56:36.330Z,1006.79
2017-06-27T02:57:02.438Z,1006.79
2017-06-27T02:57:28.531Z,1006.82
2017-06-27T02:57:54.658Z,1006.81
2017-06-27T02:58:20.746Z,1006.78
2017-06-27T02:58:46.866Z,1006.79
2017-06-27T02:59:12.972Z,1006.81
2017-06-27T02:59:39.066Z,1006.79
2017-06-27T03:00:05.156Z,1006.77
2017-06-27T03:00:31.267Z,1006.77
2017-06-27T03:00:57.362Z,1006.8
2017-06-27T03:01:23.449Z,1006.83
2017-06-27T03:01:49.554Z,1006.79
2017-06-27T03:02:15.652Z,1006.81
2017-06-27T03:02:41.742Z,1006.81
2017-06-27T03:03:07.844Z,1006.82
2017-06-27T03:03:33.933Z,1006.79
2017-06-27T03:04:00.040Z,1006.84
2017-06-27T03:04:26.136Z,1006.84
2017-06-27T03:04:52.249Z,1006.81
2017-06-27T03:05:18.358Z,1006.87
2017-06-27T03:05:44.483Z,1006.85
2017-06-27T03:06:10.572Z,1006.83
2017-06-27T03:06:36.673Z,1006.83
2017-06-27T03:07:02.779Z,1006.85
2017-06-27T03:07:28.867Z,1006.85
2017-06-27T03:07:54.968Z,1006.82
2017-06-27T03:08:21.071Z,1006.83
2017-06-27T03:08:47.189Z,1006.8
2017-06-27T03:09:13.312Z,1006.8
2017-06-27T03:09:39.402Z,1006.78
2017-06-27T03:10:05.504Z,1006.81
2017-06-27T03:10:31.607Z,1006.81
2017-06-27T03:10:57.719Z,1006.84
2017-06-27T03:11:23.816Z,1006.86
2017-06-27T03:11:49.921Z,1006.88
2017-06-27T03:12:16.087Z,1006.88
2017-06-27T03:12:42.182Z,1006.91
2017-06-27T03:13:08.313Z,1006.91
2017-06-27T03:13:34.406Z,1006.9
2017-06-27T03:14:00.498Z,1006.92
2017-06-27T03:14:26.625Z,1006.96
2017-06-27T03:14:52.724Z,1006.9
2017-06-27T03:15:18.829Z,1006.9
2017-06-27T03:15:44.941Z,1006.91
2017-06-27T03:16:11.035Z,1006.89
2017-06-27T03:16:37.141Z,1006.91
2017-06-27T03:17:03.232Z,1006.9
2017-06-27T03:17:29.323Z,1006.9
2017-06-27T03:17:55.431Z,1006.91
2017-06-27T03:18:21.527Z,1006.87
2017-06-27T03:18:47.617Z,1006.91
2017-06-27T03:19:13.722Z,1006.92
2017-06-27T03:19:39.823Z,1006.91
2017-06-27T03:20:05.921Z,1006.86
2017-06-27T03:20:32.012Z,1006.88
2017-06-27T03:20:58.151Z,1006.91
2017-06-27T03:21:24.262Z,1006.9
2017-06-27T03:21:50.357Z,1006.89
2017-06-27T03:22:16.447Z,1006.9
2017-06-27T03:22:42.579Z,1006.87
2017-06-27T03:23:08.676Z,1006.87
2017-06-27T03:23:34.812Z,1006.86
2017-06-27T03:24:00.916Z,1006.88
2017-06-27T03:24:27.021Z,1006.85
2017-06-27T03:24:53.108Z,1006.89
2017-06-27T03:25:19.232Z,1006.89
2017-06-27T03:25:45.322Z,1006.9
2017-06-27T03:26:11.428Z,1006.88
2017-06-27T03:26:37.528Z,1006.86
2017-06-27T03:27:03.616Z,1006.86
2017-06-27T03:27:29.717Z,1006.88
2017-06-27T03:27:55.850Z,1006.86
2017-06-27T03:28:21.939Z,1006.85
2017-06-27T03:28:48.038Z,1006.88
2017-06-27T03:29:14.169Z,1006.87
2017-06-27T03:29:40.259Z,1006.86
2017-06-27T03:30:06.357Z,1006.85
2017-06-27T03:30:32.463Z,1006.86
2017-06-27T03:30:58.581Z,1006.87
2017-06-27T03:31:24.670Z,1006.87
2017-06-27T03:31:50.775Z,1006.81
2017-06-27T03:32:16.872Z,1006.86
2017-06-27T03:32:42.960Z,1006.86
2017-06-27T03:33:09.093Z,1006.9
2017-06-27T03:33:35.192Z,1006.89
2017-06-27T03:34:01.281Z,1006.85
2017-06-27T03:34:27.383Z,1006.87
2017-06-27T03:34:53.489Z,1006.88
2017-06-27T03:35:19.575Z,1006.88
2017-06-27T03:35:45.672Z,1006.91
2017-06-27T03:36:11.805Z,1006.88
2017-06-27T03:36:37.896Z,1006.91
2017-06-27T03:37:03.998Z,1006.9
2017-06-27T03:37:30.090Z,1006.88
2017-06-27T03:37:56.193Z,1006.85
2017-06-27T03:38:22.299Z,1006.86
2017-06-27T03:38:48.406Z,1006.85
2017-06-27T03:39:14.504Z,1006.88
2017-06-27T03:39:40.611Z,1006.82
2017-06-27T03:40:06.703Z,1006.86
2017-06-27T03:40:32.820Z,1006.86
2017-06-27T03:40:58.926Z,1006.85
2017-06-27T03:41:25.019Z,1006.84
2017-06-27T03:41:51.109Z,1006.84
2017-06-27T03:42:17.209Z,1006.86
2017-06-27T03:42:43.308Z,1006.86
2017-06-27T03:43:09.440Z,1006.85
2017-06-27T03:43:35.556Z,1006.82
2017-06-27T03:44:01.651Z,1006.83
2017-06-27T03:44:27.757Z,1006.79
2017-06-27T03:44:53.850Z,1006.85
2017-06-27T03:45:19.941Z,1006.83
2017-06-27T03:45:46.048Z,1006.81
2017-06-27T03:46:12.145Z,1006.83
2017-06-27T03:46:38.257Z,1006.83
2017-06-27T03:47:04.362Z,1006.82
2017-06-27T03:47:30.459Z,1006.81
2017-06-27T03:47:56.557Z,1006.79
2017-06-27T03:48:22.649Z,1006.81
2017-06-27T03:48:48.735Z,1006.81
2017-06-27T03:49:14.843Z,1006.8
2017-06-27T03:49:40.939Z,1006.78
2017-06-27T03:50:07.053Z,1006.81
2017-06-27T03:50:33.160Z,1006.78
2017-06-27T03:50:59.259Z,1006.76
2017-06-27T03:51:25.348Z,1006.77
2017-06-27T03:51:51.478Z,1006.73
2017-06-27T03:52:17.613Z,1006.71
2017-06-27T03:52:43.697Z,1006.71
2017-06-27T03:53:09.823Z,1006.68
2017-06-27T03:53:35.915Z,1006.7
2017-06-27T03:54:02.022Z,1006.69
2017-06-27T03:54:28.148Z,1006.68
2017-06-27T03:54:54.263Z,1006.63
2017-06-27T03:55:20.366Z,1006.65
2017-06-27T03:55:46.471Z,1006.69
2017-06-27T03:56:12.555Z,1006.64
2017-06-27T03:56:38.654Z,1006.69
2017-06-27T03:57:04.759Z,1006.63
2017-06-27T03:57:30.846Z,1006.66
2017-06-27T03:57:56.940Z,1006.66
2017-06-27T03:58:23.075Z,1006.64
2017-06-27T03:58:49.168Z,1006.67
2017-06-27T03:59:15.273Z,1006.7
2017-06-27T03:59:41.359Z,1006.72
2017-06-27T04:00:07.455Z,1006.71
2017-06-27T04:00:33.562Z,1006.72
2017-06-27T04:00:59.696Z,1006.73
2017-06-27T04:01:25.774Z,1006.75
2017-06-27T04:01:51.880Z,1006.66
2017-06-27T04:02:17.971Z,1006.71
2017-06-27T04:02:44.075Z,1006.69
2017-06-27T04:03:10.215Z,1006.68
2017-06-27T04:03:36.312Z,1006.67
2017-06-27T04:04:02.399Z,1006.65
2017-06-27T04:04:28.533Z,1006.66
2017-06-27T04:04:54.626Z,1006.64
2017-06-27T04:05:20.762Z,1006.68
2017-06-27T04:05:46.854Z,1006.64
2017-06-27T04:06:12.945Z,1006.68
2017-06-27T04:06:39.051Z,1006.63
2017-06-27T04:07:05.147Z,1006.65
2017-06-27T04:07:31.236Z,1006.65
2017-06-27T04:07:57.342Z,1006.63
2017-06-27T04:08:23.467Z,1006.62
2017-06-27T04:08:49.557Z,1006.61
2017-06-27T04:09:15.659Z,1006.62
2017-06-27T04:09:41.792Z,1006.64
2017-06-27T04:10:07.909Z,1006.66
2017-06-27T04:10:34.036Z,1006.65
2017-06-27T04:11:00.124Z,1006.64
2017-06-27T04:11:26.230Z,1006.68
2017-06-27T04:11:52.358Z,1006.69
2017-06-27T04:12:18.446Z,1006.68
2017-06-27T04:12:44.602Z,1006.65
2017-06-27T04:13:10.705Z,1006.66
2017-06-27T04:13:36.818Z,1006.67
2017-06-27T04:14:02.916Z,1006.68
2017-06-27T04:14:29.020Z,1006.67
2017-06-27T04:14:55.108Z,1006.67
2017-06-27T04:15:21.202Z,1006.66
2017-06-27T04:15:47.306Z,1006.66
2017-06-27T04:16:13.399Z,1006.7
2017-06-27T04:16:39.487Z,1006.67
2017-06-27T04:17:05.623Z,1006.63
2017-06-27T04:17:31.720Z,1006.67
2017-06-27T04:17:57.809Z,1006.66
2017-06-27T04:18:23.913Z,1006.68
2017-06-27T04:18:50.015Z,1006.67
2017-06-27T04:19:16.152Z,1006.71
2017-06-27T04:19:42.256Z,1006.69
2017-06-27T04:20:08.361Z,1006.65
2017-06-27T04:20:34.495Z,1006.62
2017-06-27T04:21:00.617Z,1006.61
2017-06-27T04:21:26.711Z,1006.65
2017-06-27T04:21:52.841Z,1006.64
2017-06-27T04:22:18.940Z,1006.6
2017-06-27T04:22:45.030Z,1006.61
2017-06-27T04:23:11.161Z,1006.6
2017-06-27T04:23:37.268Z,1006.6
2017-06-27T04:24:03.379Z,1006.59
2017-06-27T04:24:29.480Z,1006.58
2017-06-27T04:24:55.582Z,1006.63
2017-06-27T04:25:21.671Z,1006.62
2017-06-27T04:25:47.767Z,1006.61
2017-06-27T04:26:13.871Z,1006.61
2017-06-27T04:26:39.965Z,1006.66
2017-06-27T04:27:06.067Z,1006.63
2017-06-27T04:27:32.153Z,1006.64
2017-06-27T04:27:58.251Z,1006.64
2017-06-27T04:28:24.355Z,1006.62
2017-06-27T04:28:50.446Z,1006.64
2017-06-27T04:29:16.541Z,1006.58
2017-06-27T04:29:42.644Z,1006.61
2017-06-27T04:30:08.739Z,1006.61
2017-06-27T04:30:34.852Z,1006.57
2017-06-27T04:31:01.015Z,1006.56
2017-06-27T04:31:27.111Z,1006.55
2017-06-27T04:31:53.198Z,1006.54
2017-06-27T04:32:19.329Z,1006.57
2017-06-27T04:32:45.422Z,1006.57
2017-06-27T04:33:11.555Z,1006.58
2017-06-27T04:33:37.675Z,1006.55
2017-06-27T04:34:03.788Z,1006.54
2017-06-27T04:34:29.949Z,1006.54
2017-06-27T04:34:56.045Z,1006.56
2017-06-27T04:35:22.135Z,1006.56
2017-06-27T04:35:48.270Z,1006.56
2017-06-27T04:36:14.393Z,1006.59
2017-06-27T04:36:40.506Z,1006.57
2017-06-27T04:37:06.610Z,1006.58
2017-06-27T04:37:32.744Z,1006.61
2017-06-27T04:37:58.839Z,1006.57
2017-06-27T04:38:24.960Z,1006.57
2017-06-27T04:38:51.050Z,1006.53
2017-06-27T04:39:17.157Z,1006.58
2017-06-27T04:39:43.257Z,1006.51
2017-06-27T04:40:09.373Z,1006.53
2017-06-27T04:40:35.474Z,1006.53
2017-06-27T04:41:01.607Z,1006.51
2017-06-27T04:41:27.694Z,1006.52
2017-06-27T04:41:53.793Z,1006.52
2017-06-27T04:42:19.899Z,1006.52
2017-06-27T04:42:45.987Z,1006.49
2017-06-27T04:43:12.108Z,1006.47
2017-06-27T04:43:38.205Z,1006.49
2017-06-27T04:44:04.307Z,1006.51
2017-06-27T04:44:30.440Z,1006.52
2017-06-27T04:44:56.528Z,1006.52
2017-06-27T04:45:22.628Z,1006.49
2017-06-27T04:45:48.734Z,1006.47
2017-06-27T04:46:14.823Z,1006.5
2017-06-27T04:46:40.918Z,1006.46
2017-06-27T04:47:07.023Z,1006.48
2017-06-27T04:47:33.164Z,1006.46
2017-06-27T04:47:59.253Z,1006.45
2017-06-27T04:48:25.362Z,1006.44
2017-06-27T04:48:51.512Z,1006.41
2017-06-27T04:49:17.614Z,1006.35
2017-06-27T04:49:43.726Z,1006.4
2017-06-27T04:50:09.821Z,1006.39
2017-06-27T04:50:35.953Z,1006.39
2017-06-27T04:51:02.047Z,1006.41
2017-06-27T04:51:28.137Z,1006.36
2017-06-27T04:51:54.272Z,1006.29
2017-06-27T04:52:20.396Z,1006.35
2017-06-27T04:52:46.511Z,1006.32
2017-06-27T04:53:12.617Z,1006.3
2017-06-27T04:53:38.743Z,1006.32
2017-06-27T04:54:04.860Z,1006.32
2017-06-27T04:54:30.963Z,1006.35
2017-06-27T04:54:57.079Z,1006.34
2017-06-27T04:55:23.216Z,1006.28
2017-06-27T04:55:49.311Z,1006.27
2017-06-27T04:56:15.401Z,1006.3
2017-06-27T04:56:41.509Z,1006.27
2017-06-27T04:57:07.609Z,1006.31
2017-06-27T04:57:33.725Z,1006.26
2017-06-27T04:57:59.825Z,1006.29
2017-06-27T04:58:25.930Z,1006.25
2017-06-27T04:58:52.016Z,1006.27
2017-06-27T04:59:18.116Z,1006.26
2017-06-27T04:59:44.221Z,1006.23
2017-06-27T05:00:10.312Z,1006.23
2017-06-27T05:00:36.433Z,1006.26
2017-06-27T05:01:02.534Z,1006.27
2017-06-27T05:01:28.626Z,1006.28
2017-06-27T05:01:54.715Z,1006.25
2017-06-27T05:02:20.851Z,1006.25
2017-06-27T05:02:46.943Z,1006.27
2017-06-27T05:03:13.035Z,1006.26
2017-06-27T05:03:39.143Z,1006.3
2017-06-27T05:04:05.242Z,1006.27
2017-06-27T05:04:31.329Z,1006.23
2017-06-27T05:04:57.430Z,1006.24
2017-06-27T05:05:23.539Z,1006.23
2017-06-27T05:05:49.631Z,1006.23
2017-06-27T05:06:15.727Z,1006.29
2017-06-27T05:06:41.815Z,1006.25
2017-06-27T05:07:07.946Z,1006.23
2017-06-27T05:07:34.074Z,1006.22
2017-06-27T05:08:00.165Z,1006.25
2017-06-27T05:08:26.266Z,1006.19
2017-06-27T05:08:52.374Z,1006.23
2017-06-27T05:09:18.459Z,1006.21
2017-06-27T05:09:44.558Z,1006.21
2017-06-27T05:10:10.665Z,1006.21
2017-06-27T05:10:36.803Z,1006.2
2017-06-27T05:11:02.901Z,1006.2
2017-06-27T05:11:28.993Z,1006.22
2017-06-27T05:11:55.096Z,1006.25
2017-06-27T05:12:21.202Z,1006.2
2017-06-27T05:12:47.291Z,1006.17
2017-06-27T05:13:13.414Z,1006.23
2017-06-27T05:13:39.547Z,1006.22
2017-06-27T05:14:05.634Z,1006.21
2017-06-27T05:14:31.756Z,1006.17
2017-06-27T05:14:57.861Z,1006.16
2017-06-27T05:15:23.955Z,1006.17
2017-06-27T05:15:50.045Z,1006.17
2017-06-27T05:16:16.154Z,1006.14
2017-06-27T05:16:42.248Z,1006.17